createdAt,value
2024-01-05T00:00:56.663Z,99176.63
2024-01-05T00:03:24.997Z,99166.91
2024-01-05T00:05:54.698Z,99162.66
2024-01-05T00:08:23.123Z,99163.66
2024-01-05T00:10:51.279Z,99164.81
2024-01-05T00:13:19.489Z,99162.31
2024-01-05T00:15:47.597Z,99160.63
2024-01-05T00:18:16.640Z,99154.63
2024-01-05T00:20:44.870Z,99141.50
2024-01-05T00:23:14.519Z,99138.94
2024-01-05T00:25:43.243Z,99146.13
2024-01-05T00:28:11.500Z,99144.22
2024-01-05T00:30:39.891Z,99078.81
2024-01-05T00:33:08.295Z,99111.75
2024-01-05T00:35:36.642Z,99135.81
2024-01-05T00:38:05.742Z,99126.88
2024-01-05T00:40:35.338Z,99126.72
2024-01-05T00:43:03.498Z,99129.31
2024-01-05T00:45:31.855Z,99125.88
2024-01-05T00:48:00.314Z,99120.66
2024-01-05T00:50:28.527Z,99124.19
2024-01-05T00:52:56.626Z,99124.22
2024-01-05T00:55:25.400Z,99110.72
2024-01-05T00:57:54.797Z,99127.91
2024-01-05T01:00:22.963Z,99126.41
2024-01-05T01:02:51.141Z,99125.84
2024-01-05T01:05:19.578Z,99122.53
2024-01-05T01:11:19.588Z,99123.88
2024-01-05T01:13:47.751Z,99129.28
2024-01-05T01:16:16.340Z,99118.78
2024-01-05T01:18:44.827Z,99120.41
2024-01-05T01:21:13.217Z,99116.91
2024-01-05T01:23:41.378Z,99111.75
2024-01-05T01:26:09.612Z,99119.72
2024-01-05T01:28:39.316Z,99112.88
2024-01-05T01:31:07.577Z,99106.69
2024-01-05T01:33:35.877Z,99106.06
2024-01-05T01:36:04.225Z,99105.41
2024-01-05T01:38:32.438Z,99107.19
2024-01-05T01:41:00.721Z,99102.13
2024-01-05T01:43:29.487Z,99103.06
2024-01-05T01:46:02.175Z,99093.47
2024-01-05T01:48:31.914Z,99090.63
2024-01-05T01:51:00.494Z,99086.91
2024-01-05T01:53:30.206Z,99086.13
2024-01-05T01:55:58.528Z,99077.41
2024-01-05T01:58:27.603Z,99079.19
2024-01-05T02:00:56.010Z,99084.47
2024-01-05T02:03:25.742Z,99069.72
2024-01-05T02:05:53.971Z,99038.50
2024-01-05T02:08:22.263Z,99057.56
2024-01-05T02:10:50.423Z,99058.44
2024-01-05T02:13:18.579Z,99058.44
2024-01-05T02:15:46.744Z,99058.41
2024-01-05T02:18:36.628Z,99056.66
2024-01-05T02:21:07.052Z,99054.03
2024-01-05T02:23:36.665Z,99047.84
2024-01-05T02:26:05.454Z,99046.09
2024-01-05T02:28:33.607Z,99041.72
2024-01-05T02:31:02.024Z,99043.44
2024-01-05T02:33:31.071Z,99041.72
2024-01-05T02:35:59.359Z,99038.25
2024-01-05T02:38:27.548Z,99031.34
2024-01-05T02:40:59.072Z,99029.69
2024-01-05T02:43:27.132Z,99027.13
2024-01-05T02:45:55.732Z,99020.34
2024-01-05T02:48:23.986Z,99022.09
2024-01-05T02:50:52.284Z,99009.09
2024-01-05T02:53:20.509Z,99014.91
2024-01-05T02:55:48.663Z,99001.56
2024-01-05T02:58:18.153Z,99000.63
2024-01-05T03:00:46.546Z,99007.31
2024-01-05T03:03:14.788Z,99006.13
2024-01-05T03:05:43.408Z,98999.84
2024-01-05T03:08:11.553Z,98995.25
2024-01-05T03:10:39.658Z,98998.50
2024-01-05T03:13:08.048Z,98990.31
2024-01-05T03:15:37.655Z,98990.31
2024-01-05T03:18:06.470Z,98993.69
2024-01-05T03:20:34.795Z,98977.66
2024-01-05T03:23:03.090Z,98977.44
2024-01-05T03:25:31.312Z,98979.06
2024-01-05T03:27:59.352Z,98972.59
2024-01-05T03:30:27.721Z,98965.53
2024-01-05T03:32:57.520Z,98957.41
2024-01-05T03:35:25.894Z,98965.91
2024-01-05T03:37:54.014Z,98969.31
2024-01-05T03:40:22.132Z,98962.19
2024-01-05T03:42:50.487Z,98959.41
2024-01-05T03:45:18.776Z,98956.75
2024-01-05T03:47:47.070Z,98963.66
2024-01-05T03:50:16.718Z,98954.75
2024-01-05T03:52:44.939Z,98958.16
2024-01-05T03:55:13.127Z,98958.22
2024-01-05T03:57:41.293Z,98949.59
2024-01-05T04:00:10.837Z,98948.00
2024-01-05T04:02:39.075Z,98941.94
2024-01-05T04:05:08.067Z,98933.09
2024-01-05T04:07:37.656Z,98928.56
2024-01-05T04:10:06.804Z,98929.44
2024-01-05T04:12:34.975Z,98922.28
2024-01-05T04:15:03.260Z,98911.78
2024-01-05T04:17:31.801Z,98912.56
2024-01-05T04:20:00.000Z,98913.38
2024-01-05T04:22:32.091Z,98919.56
2024-01-05T04:25:01.927Z,98909.06
2024-01-05T04:27:30.738Z,98919.41
2024-01-05T04:29:59.167Z,98933.47
2024-01-05T04:32:27.282Z,98930.72
2024-01-05T04:34:55.465Z,98932.28
2024-01-05T04:37:23.769Z,98930.31
2024-01-05T04:39:51.920Z,98926.78
2024-01-05T04:42:21.514Z,98932.94
2024-01-05T04:44:50.718Z,98926.13
2024-01-05T04:47:19.289Z,98922.06
2024-01-05T04:49:47.699Z,98918.03
2024-01-05T04:52:15.987Z,98914.94
2024-01-05T04:54:44.495Z,98908.38
2024-01-05T04:57:12.671Z,98900.06
2024-01-05T04:59:43.208Z,98910.66
2024-01-05T05:02:11.341Z,98906.28
2024-01-05T05:04:39.551Z,98905.59
2024-01-05T05:07:07.705Z,98908.28
2024-01-05T05:09:35.895Z,98899.66
2024-01-05T05:12:04.101Z,98908.41
2024-01-05T05:14:32.336Z,98900.59
2024-01-05T05:17:01.974Z,98901.53
2024-01-05T05:19:30.308Z,98899.78
2024-01-05T05:21:58.811Z,98899.75
2024-01-05T05:24:27.050Z,98885.78
2024-01-05T05:26:55.335Z,98895.44
2024-01-05T05:29:24.525Z,98893.59
2024-01-05T05:31:52.734Z,98898.81
2024-01-05T05:34:22.391Z,98897.03
2024-01-05T05:36:50.890Z,98897.09
2024-01-05T05:39:19.283Z,98901.34
2024-01-05T05:41:47.471Z,98899.53
2024-01-05T05:44:15.714Z,98900.50
2024-01-05T05:46:43.830Z,98904.78
2024-01-05T05:49:12.355Z,98880.66
2024-01-05T05:51:42.315Z,98904.78
2024-01-05T05:54:10.734Z,98907.34
2024-01-05T05:56:40.100Z,98905.66
2024-01-05T05:59:08.275Z,98903.03
2024-01-05T06:01:36.477Z,98904.94
2024-01-05T06:04:06.919Z,98901.38
2024-01-05T06:06:35.182Z,98904.97
2024-01-05T06:12:19.854Z,98903.38
2024-01-05T06:14:48.786Z,98903.28
2024-01-05T06:17:16.867Z,98903.09
2024-01-05T06:19:45.683Z,98905.69
2024-01-05T06:22:13.880Z,98917.91
2024-01-05T06:24:42.125Z,98911.69
2024-01-05T06:27:11.567Z,98922.13
2024-01-05T06:29:42.320Z,98926.53
2024-01-05T06:32:10.513Z,98921.31
2024-01-05T06:34:38.974Z,98922.16
2024-01-05T06:37:07.287Z,98934.53
2024-01-05T06:39:35.623Z,98926.59
2024-01-05T06:42:05.109Z,98915.34
2024-01-05T06:44:35.137Z,98926.63
2024-01-05T06:47:04.847Z,98927.59
2024-01-05T06:49:33.182Z,98926.81
2024-01-05T06:52:01.895Z,98931.25
2024-01-05T06:54:30.101Z,98900.84
2024-01-05T06:56:58.318Z,98914.66
2024-01-05T06:59:31.258Z,98918.34
2024-01-05T07:01:59.362Z,98923.75
2024-01-05T07:04:29.238Z,98929.25
2024-01-05T07:06:57.655Z,98927.66
2024-01-05T07:09:26.166Z,98928.94
2024-01-05T07:11:54.841Z,98933.50
2024-01-05T07:14:22.983Z,98937.19
2024-01-05T07:16:51.140Z,98936.31
2024-01-05T07:19:20.322Z,98936.13
2024-01-05T07:21:50.139Z,98927.34
2024-01-05T07:24:18.666Z,98941.97
2024-01-05T07:26:47.240Z,98932.13
2024-01-05T07:29:25.252Z,98928.38
2024-01-05T07:31:53.393Z,98927.25
2024-01-05T07:34:21.641Z,98919.25
2024-01-05T07:36:51.616Z,98920.91
2024-01-05T07:39:20.946Z,98933.84
2024-01-05T07:41:49.294Z,98939.72
2024-01-05T07:44:18.132Z,98928.13
2024-01-05T07:46:46.701Z,98948.56
2024-01-05T07:49:15.148Z,98951.88
2024-01-05T07:51:43.592Z,98953.41
2024-01-05T07:54:13.306Z,98944.44
2024-01-05T07:56:41.534Z,98945.88
2024-01-05T07:59:09.683Z,98916.88
2024-01-05T08:01:38.026Z,98933.63
2024-01-05T08:04:06.529Z,98924.41
2024-01-05T08:06:34.936Z,98930.19
2024-01-05T08:09:03.396Z,98927.00
2024-01-05T08:11:32.923Z,98922.75
2024-01-05T08:14:01.136Z,98919.56
2024-01-05T08:16:29.278Z,98913.75
2024-01-05T08:18:57.574Z,98907.09
2024-01-05T08:21:26.000Z,98904.97
2024-01-05T08:23:54.290Z,98903.84
2024-01-05T08:26:22.467Z,98904.97
2024-01-05T08:28:52.008Z,98898.56
2024-01-05T08:31:20.343Z,98879.34
2024-01-05T08:33:48.836Z,98892.66
2024-01-05T08:36:17.137Z,98889.34
2024-01-05T08:38:46.771Z,98894.56
2024-01-05T08:41:14.936Z,98900.66
2024-01-05T08:43:45.374Z,98900.63
2024-01-05T08:46:15.287Z,98894.22
2024-01-05T08:48:45.965Z,98887.94
2024-01-05T08:51:14.173Z,98875.91
2024-01-05T08:53:43.690Z,98895.47
2024-01-05T08:56:12.379Z,98895.28
2024-01-05T08:58:40.918Z,98896.91
2024-01-05T09:01:09.219Z,98886.09
2024-01-05T09:03:39.171Z,98892.78
2024-01-05T09:06:07.868Z,98893.94
2024-01-05T09:08:36.619Z,98907.31
2024-01-05T09:11:05.929Z,98913.78
2024-01-05T09:13:36.162Z,98907.31
2024-01-05T09:16:05.159Z,98913.84
2024-01-05T09:18:35.500Z,98915.72
2024-01-05T09:21:07.977Z,98914.06
2024-01-05T09:23:36.222Z,98916.78
2024-01-05T09:26:04.565Z,98922.09
2024-01-05T09:28:32.901Z,98921.03
2024-01-05T09:31:01.398Z,98928.88
2024-01-05T09:33:30.056Z,98941.09
2024-01-05T09:35:58.426Z,98921.56
2024-01-05T09:38:48.040Z,98932.59
2024-01-05T09:41:38.974Z,98944.09
2024-01-05T09:44:29.079Z,98941.66
2024-01-05T09:47:17.178Z,98926.09
2024-01-05T09:52:55.267Z,98953.50
2024-01-05T09:55:44.851Z,98952.47
2024-01-05T09:58:33.674Z,98968.81
2024-01-05T10:01:26.873Z,98960.19
2024-01-05T10:04:15.200Z,98953.06
2024-01-05T10:07:03.923Z,98951.06
2024-01-05T10:09:53.230Z,98951.66
2024-01-05T10:12:43.014Z,98956.03
2024-01-05T10:15:31.307Z,98948.78
2024-01-05T10:18:24.194Z,98954.78
2024-01-05T10:21:13.829Z,98960.59
2024-01-05T10:24:01.997Z,98956.38
2024-01-05T10:27:02.626Z,98945.78
2024-01-05T10:29:58.018Z,98948.09
2024-01-05T10:32:46.706Z,98961.25
2024-01-05T10:35:35.763Z,98953.59
2024-01-05T10:38:26.050Z,98949.28
2024-01-05T10:41:14.335Z,98944.41
2024-01-05T10:44:05.274Z,98947.63
2024-01-05T10:46:55.234Z,98946.09
2024-01-05T10:49:50.542Z,98951.41
2024-01-05T10:52:40.978Z,98953.03
2024-01-05T10:55:30.127Z,98950.66
2024-01-05T10:58:18.955Z,98947.75
2024-01-05T11:01:08.659Z,98945.09
2024-01-05T11:03:58.648Z,98942.59
2024-01-05T11:06:47.472Z,98941.97
2024-01-05T11:13:41.824Z,98922.56
2024-01-05T11:17:00.724Z,98915.13
2024-01-05T11:20:13.317Z,98918.00
2024-01-05T11:23:02.473Z,98905.03
2024-01-05T11:25:51.281Z,98907.34
2024-01-05T11:28:41.023Z,98911.53
2024-01-05T11:31:54.512Z,98908.56
2024-01-05T11:34:42.884Z,98910.38
2024-01-05T11:37:31.868Z,98901.31
2024-01-05T11:40:29.128Z,98898.28
2024-01-05T11:43:39.822Z,98889.94
2024-01-05T11:46:53.735Z,98885.13
2024-01-05T11:49:43.264Z,98910.16
2024-01-05T11:52:31.935Z,98902.69
2024-01-05T11:55:20.237Z,98890.25
2024-01-05T11:58:09.294Z,98884.31
2024-01-05T12:00:58.750Z,98895.50
2024-01-05T12:03:48.510Z,98898.47
2024-01-05T12:06:36.709Z,98884.28
2024-01-05T12:09:25.041Z,98897.09
2024-01-05T12:12:20.397Z,98885.94
2024-01-05T12:15:11.808Z,98888.00
2024-01-05T12:18:16.853Z,98886.63
2024-01-05T12:21:15.531Z,98888.91
2024-01-05T12:24:05.193Z,98896.88
2024-01-05T12:26:55.203Z,98888.66
2024-01-05T12:29:44.245Z,98875.16
2024-01-05T12:32:34.406Z,98877.78
2024-01-05T12:35:22.960Z,98893.72
2024-01-05T12:38:12.441Z,98898.72
2024-01-05T12:41:09.346Z,98899.03
2024-01-05T12:43:58.354Z,98890.50
2024-01-05T12:46:48.781Z,98892.34
2024-01-05T12:49:38.024Z,98877.28
2024-01-05T12:52:36.443Z,98884.25
2024-01-05T12:55:33.858Z,98859.50
2024-01-05T12:58:22.143Z,98888.84
2024-01-05T13:01:18.874Z,98883.75
2024-01-05T13:04:09.425Z,98890.28
2024-01-05T13:06:57.586Z,98881.09
2024-01-05T13:09:45.859Z,98887.53
2024-01-05T13:12:36.026Z,98886.88
2024-01-05T13:15:25.051Z,98879.28
2024-01-05T13:18:13.366Z,98887.03
2024-01-05T13:21:01.654Z,98896.13
2024-01-05T13:23:53.497Z,98898.88
2024-01-05T13:26:42.372Z,98897.25
2024-01-05T13:29:31.953Z,98875.44
2024-01-05T13:32:20.148Z,98899.31
2024-01-05T13:35:09.209Z,98900.88
2024-01-05T13:37:57.363Z,98901.91
2024-01-05T13:40:45.426Z,98904.22
2024-01-05T13:43:33.728Z,98909.09
2024-01-05T13:46:23.167Z,98904.69
2024-01-05T13:49:11.409Z,98901.88
2024-01-05T13:51:59.581Z,98906.34
2024-01-05T13:54:50.045Z,98904.81
2024-01-05T13:57:38.434Z,98909.00
2024-01-05T14:00:26.639Z,98911.53
2024-01-05T14:03:16.655Z,98903.09
2024-01-05T14:06:13.362Z,98884.34
2024-01-05T14:09:02.496Z,98906.38
2024-01-05T14:11:51.456Z,98878.13
2024-01-05T14:14:39.957Z,98897.78
2024-01-05T14:17:28.247Z,98893.59
2024-01-05T14:20:18.626Z,98893.22
2024-01-05T14:23:09.377Z,98895.69
2024-01-05T14:25:58.361Z,98897.34
2024-01-05T14:28:46.695Z,98896.25
2024-01-05T14:31:36.161Z,98901.56
2024-01-05T14:34:24.595Z,98907.38
2024-01-05T14:37:14.218Z,98907.72
2024-01-05T14:40:02.331Z,98913.91
2024-01-05T14:42:50.566Z,98915.94
2024-01-05T14:45:38.885Z,98918.81
2024-01-05T14:48:28.056Z,98922.72
2024-01-05T14:51:16.522Z,98933.88
2024-01-05T14:54:06.231Z,98929.63
2024-01-05T14:56:54.531Z,98937.13
2024-01-05T14:59:42.587Z,98941.72
2024-01-05T15:02:30.839Z,98927.38
2024-01-05T15:05:19.049Z,98944.09
2024-01-05T15:08:08.693Z,98940.16
2024-01-05T15:10:58.162Z,98935.31
2024-01-05T15:13:46.303Z,98911.78
2024-01-05T15:16:40.979Z,98928.69
2024-01-05T15:19:29.403Z,98940.31
2024-01-05T15:22:18.228Z,98935.44
2024-01-05T15:25:07.230Z,98941.88
2024-01-05T15:27:57.797Z,98947.59
2024-01-05T15:30:46.049Z,98948.00
2024-01-05T15:33:34.268Z,98957.09
2024-01-05T15:36:25.239Z,98953.06
2024-01-05T15:39:13.912Z,98957.72
2024-01-05T15:42:02.262Z,98968.53
2024-01-05T15:44:51.847Z,98960.81
2024-01-05T15:47:40.028Z,98957.03
2024-01-05T15:50:29.228Z,98935.06
2024-01-05T15:53:17.415Z,98959.34
2024-01-05T15:56:07.672Z,98960.84
2024-01-05T15:58:56.139Z,98947.28
2024-01-05T16:01:48.520Z,98969.16
2024-01-05T16:04:36.717Z,98966.81
2024-01-05T16:07:25.395Z,98968.69
2024-01-05T16:10:13.892Z,98970.88
2024-01-05T16:14:19.715Z,98984.22
2024-01-05T16:17:07.957Z,98991.06
2024-01-05T16:19:56.102Z,98996.84
2024-01-05T16:22:44.465Z,99002.16
2024-01-05T16:25:32.767Z,98998.75
2024-01-05T16:28:20.894Z,99005.88
2024-01-05T16:31:11.358Z,98995.31
2024-01-05T16:33:59.750Z,99005.16
2024-01-05T16:36:48.123Z,98981.84
2024-01-05T16:39:36.720Z,99010.56
2024-01-05T16:42:24.958Z,99003.72
2024-01-05T16:45:13.630Z,99009.31
2024-01-05T16:48:03.425Z,99011.47
2024-01-05T16:50:51.674Z,98985.75
2024-01-05T16:53:39.807Z,99014.59
2024-01-05T16:56:30.151Z,99016.41
2024-01-05T16:59:18.812Z,99017.44
2024-01-05T17:02:08.934Z,99016.56
2024-01-05T17:04:59.268Z,99015.09
2024-01-05T17:07:47.418Z,99028.81
2024-01-05T17:10:36.337Z,99021.69
2024-01-05T17:13:25.589Z,99002.13
2024-01-05T17:16:13.970Z,99025.69
2024-01-05T17:19:02.117Z,99020.84
2024-01-05T17:21:53.074Z,99020.25
2024-01-05T17:24:41.281Z,99026.88
2024-01-05T17:27:29.703Z,99025.59
2024-01-05T17:30:18.090Z,99023.13
2024-01-05T17:33:06.678Z,99024.47
2024-01-05T17:35:58.896Z,99015.94
2024-01-05T17:38:50.580Z,99016.81
2024-01-05T17:41:40.263Z,99023.16
2024-01-05T17:44:31.336Z,99022.91
2024-01-05T17:47:21.634Z,99026.00
2024-01-05T17:50:11.013Z,99026.00
2024-01-05T17:52:59.108Z,99024.59
2024-01-05T17:55:48.573Z,99026.88
2024-01-05T17:58:36.805Z,99039.59
2024-01-05T18:01:09.357Z,99015.25
2024-01-05T18:03:41.909Z,99023.53
2024-01-05T18:06:10.826Z,99039.44
2024-01-05T18:08:39.143Z,99045.03
2024-01-05T18:11:09.497Z,99041.44
2024-01-05T18:13:37.993Z,99045.03
2024-01-05T18:16:07.648Z,99053.97
2024-01-05T18:18:39.512Z,99051.50
2024-01-05T18:21:08.101Z,99040.44
2024-01-05T18:23:36.388Z,99058.53
2024-01-05T18:26:04.909Z,99056.03
2024-01-05T18:28:34.402Z,99060.34
2024-01-05T18:31:03.637Z,99062.25
2024-01-05T18:33:31.952Z,99034.53
2024-01-05T18:36:00.293Z,99040.38
2024-01-05T18:38:28.546Z,99054.19
2024-01-05T18:40:56.943Z,99053.47
2024-01-05T18:43:25.605Z,99055.78
2024-01-05T18:45:55.653Z,99069.66
2024-01-05T18:48:24.158Z,99066.38
2024-01-05T18:50:52.534Z,99043.81
2024-01-05T18:53:21.402Z,99076.59
2024-01-05T18:55:50.651Z,99077.84
2024-01-05T18:58:18.866Z,99085.06
2024-01-05T19:00:47.214Z,99081.00
2024-01-05T19:03:16.961Z,99078.50
2024-01-05T19:05:45.294Z,99076.97
2024-01-05T19:08:16.218Z,99075.47
2024-01-05T19:10:46.329Z,99074.59
2024-01-05T19:13:16.044Z,99074.75
2024-01-05T19:15:45.391Z,99085.41
2024-01-05T19:18:14.122Z,99064.09
2024-01-05T19:20:44.037Z,99080.78
2024-01-05T19:23:13.030Z,99075.06
2024-01-05T19:25:42.083Z,99084.13
2024-01-05T19:28:10.287Z,99084.31
2024-01-05T19:30:38.522Z,99074.09
2024-01-05T19:33:06.969Z,99082.16
2024-01-05T19:35:35.373Z,99088.38
2024-01-05T19:38:05.902Z,99083.25
2024-01-05T19:40:34.599Z,99096.56
2024-01-05T19:43:09.894Z,99082.38
2024-01-05T19:45:39.013Z,99096.22
2024-01-05T19:48:08.729Z,99093.81
2024-01-05T19:50:38.567Z,99093.03
2024-01-05T19:53:08.356Z,99088.84
2024-01-05T19:55:36.726Z,99094.41
2024-01-05T19:58:05.733Z,99085.63
2024-01-05T20:00:52.383Z,99087.38
2024-01-05T20:03:20.685Z,99092.72
2024-01-05T20:05:48.998Z,99093.59
2024-01-05T20:08:17.557Z,99105.03
2024-01-05T20:10:45.787Z,99100.69
2024-01-05T20:13:14.085Z,99107.81
2024-01-05T20:15:42.550Z,99106.22
2024-01-05T20:18:24.567Z,99101.63
2024-01-05T20:20:52.863Z,99109.66
2024-01-05T20:23:22.627Z,99114.06
2024-01-05T20:25:51.961Z,99114.25
2024-01-05T20:28:20.546Z,99116.91
2024-01-05T20:30:49.368Z,99122.22
2024-01-05T20:33:17.801Z,99093.59
2024-01-05T20:35:46.511Z,99118.63
2024-01-05T20:38:15.367Z,99122.09
2024-01-05T20:40:46.367Z,99122.22
2024-01-05T20:43:14.736Z,99115.94
2024-01-05T20:45:45.117Z,99114.06
2024-01-05T20:48:13.655Z,99114.88
2024-01-05T20:50:41.874Z,99118.63
2024-01-05T20:53:12.014Z,99127.50
2024-01-05T20:55:41.108Z,99121.53
2024-01-05T20:58:10.770Z,99121.66
2024-01-05T21:00:39.205Z,99125.16
2024-01-05T21:03:08.008Z,99116.44
2024-01-05T21:05:36.621Z,99112.16
2024-01-05T21:08:05.700Z,99093.97
2024-01-05T21:10:33.933Z,99124.28
2024-01-05T21:15:19.865Z,99122.47
2024-01-05T21:17:49.196Z,99099.81
2024-01-05T21:20:17.483Z,99115.38
2024-01-05T21:22:45.972Z,99113.63
2024-01-05T21:25:14.275Z,99117.25
2024-01-05T21:27:42.457Z,99111.22
2024-01-05T21:30:11.648Z,99111.28
2024-01-05T21:32:41.457Z,99120.16
2024-01-05T21:35:10.085Z,99120.31
2024-01-05T21:37:38.714Z,99115.09
2024-01-05T21:40:08.564Z,99115.22
2024-01-05T21:42:37.376Z,99112.59
2024-01-05T21:45:08.033Z,99115.22
2024-01-05T21:47:36.513Z,99121.41
2024-01-05T21:50:07.612Z,99116.09
2024-01-05T21:52:36.129Z,99108.19
2024-01-05T21:55:04.694Z,99117.78
2024-01-05T21:57:33.027Z,99116.91
2024-01-05T22:00:01.708Z,99117.69
2024-01-05T22:02:32.841Z,99114.22
2024-01-05T22:05:01.180Z,99121.28
2024-01-05T22:07:31.127Z,99105.38
2024-01-05T22:09:59.933Z,99125.06
2024-01-05T22:12:28.372Z,99123.78
2024-01-05T22:14:56.497Z,99121.94
2024-01-05T22:17:26.387Z,99122.16
2024-01-05T22:19:54.841Z,99124.63
2024-01-05T22:22:23.074Z,99127.50
2024-01-05T22:24:52.863Z,99122.28
2024-01-05T22:27:22.261Z,99123.91
2024-01-05T22:29:50.447Z,99124.00
2024-01-05T22:32:18.880Z,99113.56
2024-01-05T22:34:47.564Z,99117.97
2024-01-05T22:37:16.741Z,99126.81
2024-01-05T22:39:45.113Z,99127.69
2024-01-05T22:42:16.231Z,99116.44
2024-01-05T22:44:44.481Z,99121.66
2024-01-05T22:47:12.840Z,99127.06
2024-01-05T22:49:41.877Z,99122.75
2024-01-05T22:52:10.265Z,99125.41
2024-01-05T22:54:40.646Z,99118.31
2024-01-05T22:57:11.131Z,99117.31
2024-01-05T22:59:42.076Z,99120.09
2024-01-05T23:02:09.240Z,99119.31
2024-01-05T23:04:41.283Z,99117.66
2024-01-05T23:07:10.312Z,99118.63
2024-01-05T23:09:38.877Z,99118.72
2024-01-05T23:12:09.236Z,99120.56
2024-01-05T23:14:37.446Z,99119.66
2024-01-05T23:17:07.033Z,99118.84
2024-01-05T23:19:35.388Z,99123.13
2024-01-05T23:22:03.695Z,99123.16
2024-01-05T23:24:31.899Z,99126.78
2024-01-05T23:27:00.179Z,99125.03
2024-01-05T23:29:28.780Z,99130.41
2024-01-05T23:31:57.779Z,99130.31
2024-01-05T23:34:27.825Z,99126.63
2024-01-05T23:36:56.242Z,99131.81
2024-01-05T23:39:39.401Z,99132.72
2024-01-05T23:42:09.690Z,99130.91
2024-01-05T23:44:41.495Z,99133.50
2024-01-05T23:47:09.744Z,99138.69
2024-01-05T23:49:39.406Z,99140.41
2024-01-05T23:52:07.943Z,99133.31
2024-01-05T23:54:36.369Z,99109.53
2024-01-05T23:57:05.076Z,99129.56
2024-01-05T23:59:33.353Z,99134.59
